Time;durP1;ratioP1;P1;durP2;ratioP2;P2;SDS_P1;SDS_P2;PMS_P1;PMS_P2;Temp;Humidity;BMP_temperature;BMP_pressure;BME280_temperature;BME280_humidity;BME280_pressure;Samples;Min_cycle;Max_cycle;Signal;HPM_P1;HPM_P2
2022/09/17 00:00:31;;;;;;;12.23;7.78;;;;;;;10.02;92.06;97793.91;5099560;27;20038;-69
2022/09/17 00:02:55;;;;;;;10.63;7.57;;;;;;;9.99;92.16;97802.19;5107519;27;20520;-71
2022/09/17 00:05:22;;;;;;;10.60;7.25;;;;;;;9.97;91.84;97791.66;5097556;27;20509;-71
2022/09/17 00:07:47;;;;;;;13.30;7.72;;;;;;;9.95;92.44;97803.44;5097239;27;20042;-68
2022/09/17 00:10:12;;;;;;;12.18;7.40;;;;;;;9.92;91.86;97801.13;5078721;27;20031;-71
2022/09/17 00:12:36;;;;;;;11.45;7.22;;;;;;;9.90;92.29;97805.75;5061858;27;20050;-71
2022/09/17 00:15:01;;;;;;;11.18;7.50;;;;;;;9.87;92.23;97804.22;5096919;27;20039;-69
2022/09/17 00:17:25;;;;;;;12.05;7.72;;;;;;;9.85;92.29;97811.50;5079046;27;20382;-66
2022/09/17 00:19:50;;;;;;;12.38;7.40;;;;;;;9.82;92.31;97807.31;5079310;27;20410;-70
2022/09/17 00:22:15;;;;;;;8.88;6.65;;;;;;;9.80;91.65;97813.78;5044656;27;20569;-72
2022/09/17 00:24:39;;;;;;;11.55;6.95;;;;;;;9.78;91.41;97811.28;5105451;27;20057;-74
2022/09/17 00:27:04;;;;;;;9.65;6.65;;;;;;;9.75;92.15;97806.25;5088823;27;20046;-77
2022/09/17 00:29:29;;;;;;;8.93;6.75;;;;;;;9.76;91.95;97817.72;5055036;27;20498;-75
2022/09/17 00:31:53;;;;;;;9.07;6.38;;;;;;;9.74;91.80;97825.03;5080432;27;20057;-75
2022/09/17 00:34:18;;;;;;;9.23;7.03;;;;;;;9.72;91.87;97825.16;5086960;27;20039;-76
2022/09/17 00:36:43;;;;;;;9.55;6.60;;;;;;;9.68;91.97;97826.47;5062873;27;20049;-76
2022/09/17 00:39:10;;;;;;;9.68;6.70;;;;;;;9.69;92.02;97829.97;5088472;27;20087;-70
2022/09/17 00:41:36;;;;;;;12.02;7.38;;;;;;;9.64;91.49;97825.06;5108493;27;20042;-71
2022/09/17 00:44:40;;;;;;;7.40;5.93;;;;;;;9.69;91.98;97836.13;5072294;27;20070;-71
2022/09/17 00:47:27;;;;;;;10.18;6.38;;;;;;;9.52;91.67;97830.72;5107301;27;20141;-72
2022/09/17 00:49:56;;;;;;;10.85;6.75;;;;;;;9.48;91.89;97830.19;5060027;27;20043;-73
2022/09/17 00:52:27;;;;;;;8.82;6.20;;;;;;;9.44;91.69;97834.13;5076112;27;20061;-74
2022/09/17 00:55:00;;;;;;;7.40;6.60;;;;;;;9.41;91.75;97829.09;5083822;27;20026;-70
2022/09/17 00:57:25;;;;;;;9.77;6.50;;;;;;;9.36;91.60;97834.88;5075772;27;21054;-72
2022/09/17 00:59:50;;;;;;;10.57;6.65;;;;;;;9.34;91.64;97828.03;5107973;27;20043;-74
2022/09/17 01:02:15;;;;;;;9.20;7.20;;;;;;;9.31;91.51;97831.81;5109047;27;20044;-73
2022/09/17 01:04:41;;;;;;;8.38;6.53;;;;;;;9.30;92.08;97826.63;5116323;27;20037;-74
2022/09/17 01:07:40;;;;;;;11.70;6.60;;;;;;;9.34;91.66;97834.19;5097542;27;20079;-74
2022/09/17 01:10:07;;;;;;;9.68;5.80;;;;;;;9.28;91.87;97833.91;5092906;27;20042;-76
2022/09/17 01:12:56;;;;;;;8.13;5.50;;;;;;;9.25;91.74;97836.88;5088945;27;20042;-76
2022/09/17 01:15:38;;;;;;;7.80;6.00;;;;;;;9.24;91.71;97845.84;5105556;27;20031;-75
2022/09/17 01:18:31;;;;;;;9.10;6.10;;;;;;;9.19;91.68;97842.75;5106153;27;20046;-70
2022/09/17 01:21:25;;;;;;;10.40;5.82;;;;;;;9.15;92.16;97842.19;5088571;27;20095;-75
2022/09/17 01:24:27;;;;;;;7.23;5.03;;;;;;;9.14;91.92;97843.22;5085172;27;20039;-70
2022/09/17 01:27:14;;;;;;;7.35;5.68;;;;;;;9.08;91.79;97839.28;5087709;27;20034;-71
2022/09/17 01:30:16;;;;;;;8.50;6.00;;;;;;;9.10;91.62;97841.81;5104969;27;20076;-69
2022/09/17 01:33:12;;;;;;;8.02;5.63;;;;;;;9.07;92.31;97837.63;5087499;27;20115;-70
2022/09/17 01:35:58;;;;;;;9.07;6.72;;;;;;;9.01;91.74;97850.66;5071030;27;20030;-71
2022/09/17 01:38:35;;;;;;;13.30;6.28;;;;;;;9.00;91.80;97852.47;5093637;27;20070;-74
2022/09/17 01:41:27;;;;;;;9.98;5.40;;;;;;;8.97;92.02;97844.78;5116336;27;20038;-73
2022/09/17 01:44:01;;;;;;;15.27;5.85;;;;;;;8.92;91.93;97839.03;5080374;27;20130;-75
2022/09/17 01:46:34;;;;;;;7.05;5.75;;;;;;;8.90;92.14;97846.34;5081288;27;20038;-72
2022/09/17 01:49:03;;;;;;;8.93;5.63;;;;;;;8.85;91.48;97845.91;5080600;27;20074;-72
2022/09/17 01:51:36;;;;;;;9.60;6.45;;;;;;;8.84;91.57;97852.22;5097800;27;20507;-73
2022/09/17 01:54:03;;;;;;;8.80;5.45;;;;;;;8.79;91.85;97846.50;5079155;27;20129;-73
2022/09/17 01:56:37;;;;;;;7.85;5.78;;;;;;;8.83;91.53;97855.00;5116306;27;20134;-72
2022/09/17 01:59:26;;;;;;;8.95;5.55;;;;;;;8.84;91.77;97857.53;5097908;27;20073;-72
2022/09/17 02:01:57;;;;;;;8.35;5.57;;;;;;;8.75;91.46;97863.69;5116298;27;20035;-71
2022/09/17 02:04:38;;;;;;;9.35;5.43;;;;;;;8.78;91.78;97857.28;5116148;27;20125;-70
2022/09/17 02:07:10;;;;;;;7.97;5.35;;;;;;;8.73;91.86;97853.22;5097098;27;20041;-71
2022/09/17 02:09:41;;;;;;;7.13;4.80;;;;;;;8.75;91.50;97850.41;5063067;27;20046;-69
2022/09/17 02:12:11;;;;;;;7.32;5.65;;;;;;;8.78;91.17;97866.09;5097484;27;20035;-70
2022/09/17 02:14:43;;;;;;;11.43;5.05;;;;;;;8.69;91.10;97867.75;5086737;27;20122;-67
2022/09/17 02:17:26;;;;;;;14.68;5.28;;;;;;;8.65;90.69;97873.50;5115670;27;20042;-67
2022/09/17 02:19:52;;;;;;;7.32;5.15;;;;;;;8.58;91.31;97873.19;5096885;27;20045;-67
2022/09/17 02:22:42;;;;;;;9.52;5.30;;;;;;;8.60;91.33;97875.72;5097133;27;20042;-66
2022/09/17 02:25:21;;;;;;;6.63;4.82;;;;;;;8.63;91.61;97875.44;5115288;27;20133;-67
2022/09/17 02:28:01;;;;;;;8.63;5.18;;;;;;;8.54;91.64;97868.34;5078304;27;20098;-69
2022/09/17 02:30:26;;;;;;;7.28;4.78;;;;;;;8.57;91.50;97874.22;5096746;27;20043;-69
2022/09/17 02:32:52;;;;;;;7.43;5.32;;;;;;;8.50;91.22;97866.91;5099068;27;20043;-68
2022/09/17 02:35:18;;;;;;;6.72;4.97;;;;;;;8.45;91.18;97877.16;5089073;27;20051;-68
2022/09/17 02:37:43;;;;;;;8.73;5.63;;;;;;;8.43;91.30;97874.63;5098465;27;20382;-67
2022/09/17 02:40:11;;;;;;;7.38;5.13;;;;;;;8.44;91.72;97880.78;5079942;27;20051;-68
2022/09/17 02:42:58;;;;;;;8.27;4.82;;;;;;;8.50;91.62;97890.81;5075176;27;20362;-66
2022/09/17 02:46:02;;;;;;;7.05;4.88;;;;;;;8.49;92.04;97887.31;5084437;27;20086;-66
2022/09/17 02:49:06;;;;;;;7.75;4.90;;;;;;;8.49;91.75;97879.34;5081503;27;20039;-67
2022/09/17 02:51:49;;;;;;;7.65;4.63;;;;;;;8.44;91.73;97886.09;5108772;27;20051;-67
2022/09/17 02:54:38;;;;;;;5.88;4.78;;;;;;;8.47;91.73;97885.78;5099911;27;20042;-75
2022/09/17 02:57:13;;;;;;;5.03;4.28;;;;;;;8.44;91.93;97892.25;5083164;27;20106;-73
2022/09/17 02:59:42;;;;;;;6.50;4.80;;;;;;;8.42;91.67;97888.03;5072552;27;20103;-72
2022/09/17 03:02:48;;;;;;;5.57;4.65;;;;;;;8.45;91.64;97888.59;5084118;27;20135;-67
2022/09/17 03:05:17;;;;;;;7.85;4.90;;;;;;;8.40;91.91;97884.69;5055831;28;20447;-68
2022/09/17 03:07:42;;;;;;;6.50;5.45;;;;;;;8.37;91.57;97889.28;5001848;28;20076;-66
2022/09/17 03:10:07;;;;;;;6.43;4.43;;;;;;;8.34;91.58;97894.88;5024374;28;20075;-68
2022/09/17 03:12:32;;;;;;;7.80;5.30;;;;;;;8.34;91.98;97892.22;5018582;28;20064;-68
2022/09/17 03:14:56;;;;;;;6.80;5.05;;;;;;;8.35;91.65;97893.88;5019680;28;20218;-68
2022/09/17 03:17:21;;;;;;;7.57;5.30;;;;;;;8.35;91.88;97896.53;5037641;28;20668;-68
2022/09/17 03:19:46;;;;;;;7.25;5.45;;;;;;;8.36;92.13;97898.22;5036463;28;20042;-68
2022/09/17 03:22:11;;;;;;;9.00;6.05;;;;;;;8.38;92.06;97906.88;5018557;28;20143;-69
2022/09/17 03:24:36;;;;;;;8.30;5.35;;;;;;;8.41;91.98;97904.94;5036176;28;20036;-69
2022/09/17 03:27:00;;;;;;;8.48;5.32;;;;;;;8.45;92.10;97907.19;5019533;28;20044;-69
2022/09/17 03:29:25;;;;;;;10.57;6.03;;;;;;;8.52;91.82;97913.63;5019731;28;20037;-74
2022/09/17 03:31:50;;;;;;;5.72;4.97;;;;;;;8.58;91.97;97909.56;5020487;28;20042;-72
2022/09/17 03:34:15;;;;;;;10.98;5.72;;;;;;;8.63;92.16;97910.81;5035652;28;20075;-71
2022/09/17 03:36:39;;;;;;;7.65;5.70;;;;;;;8.64;91.84;97911.66;5085923;27;20055;-70
2022/09/17 03:39:04;;;;;;;9.57;5.78;;;;;;;8.70;91.78;97913.75;5098985;27;20129;-72
2022/09/17 03:41:29;;;;;;;10.50;6.38;;;;;;;8.75;91.54;97911.53;5082553;27;20043;-72
2022/09/17 03:43:54;;;;;;;8.43;5.80;;;;;;;8.82;91.56;97914.44;5081805;27;20047;-73
2022/09/17 03:46:19;;;;;;;6.82;5.32;;;;;;;8.85;91.43;97916.81;5102973;27;20042;-72
2022/09/17 03:48:44;;;;;;;8.35;5.80;;;;;;;8.91;91.31;97925.09;5098909;27;20054;-72
2022/09/17 03:51:09;;;;;;;8.82;5.38;;;;;;;8.95;91.59;97915.84;5098482;27;20489;-72
2022/09/17 03:53:34;;;;;;;7.80;5.50;;;;;;;9.03;91.71;97915.97;5098628;27;20043;-71
2022/09/17 03:56:00;;;;;;;12.20;6.97;;;;;;;9.10;91.29;97930.38;5098192;27;20043;-71
2022/09/17 03:58:25;;;;;;;9.45;6.20;;;;;;;9.16;91.05;97930.78;5080967;27;20053;-71
2022/09/17 04:00:52;;;;;;;7.47;5.45;;;;;;;9.16;91.09;97920.13;5082839;27;20098;-71
2022/09/17 04:03:16;;;;;;;7.47;5.10;;;;;;;9.19;90.76;97935.81;5099393;27;20031;-72
2022/09/17 04:05:41;;;;;;;7.43;5.30;;;;;;;9.30;90.72;97933.84;5080767;27;20054;-72
2022/09/17 04:08:06;;;;;;;8.43;5.47;;;;;;;9.35;90.41;97934.25;5099188;27;20050;-71
2022/09/17 04:10:30;;;;;;;9.70;5.43;;;;;;;9.40;90.37;97937.31;5098418;27;20517;-72
2022/09/17 04:12:55;;;;;;;7.95;5.50;;;;;;;9.40;90.39;97939.97;5098356;27;20050;-71
2022/09/17 04:15:19;;;;;;;8.30;5.03;;;;;;;9.44;89.97;97948.50;5098258;27;20122;-71
2022/09/17 04:17:44;;;;;;;7.45;5.03;;;;;;;9.53;90.11;97936.16;5097637;27;20051;-71
2022/09/17 04:20:09;;;;;;;7.63;5.30;;;;;;;9.65;90.47;97941.16;5097877;27;20047;-72
2022/09/17 04:22:33;;;;;;;6.03;4.50;;;;;;;9.79;89.84;97945.19;5080918;27;20046;-71
2022/09/17 04:24:58;;;;;;;6.78;5.38;;;;;;;9.86;89.67;97951.59;5098062;27;20493;-72
2022/09/17 04:27:23;;;;;;;6.32;4.75;;;;;;;9.95;89.37;97944.53;5098712;27;20382;-72
2022/09/17 04:29:47;;;;;;;8.20;5.13;;;;;;;10.01;89.15;97955.44;5081503;27;20062;-73
2022/09/17 04:32:12;;;;;;;10.70;5.03;;;;;;;10.14;89.16;97947.13;5064302;27;20047;-73
2022/09/17 04:34:37;;;;;;;6.50;5.10;;;;;;;10.24;88.95;97950.59;5098991;27;20043;-73
2022/09/17 04:37:02;;;;;;;7.03;4.93;;;;;;;10.36;88.85;97953.91;5097991;27;20046;-71
2022/09/17 04:39:26;;;;;;;8.48;5.20;;;;;;;10.49;88.85;97952.56;5098518;27;20039;-69
2022/09/17 04:41:51;;;;;;;8.23;4.60;;;;;;;10.62;88.54;97946.00;5063558;27;20039;-70
2022/09/17 04:44:16;;;;;;;9.50;4.78;;;;;;;10.77;88.53;97952.47;5062462;27;20042;-70
2022/09/17 04:46:41;;;;;;;9.27;4.45;;;;;;;10.93;87.68;97949.97;5078511;27;20084;-71
2022/09/17 04:49:07;;;;;;;8.90;4.45;;;;;;;11.00;87.28;97953.69;5078780;27;20038;-71
2022/09/17 04:51:31;;;;;;;8.98;5.38;;;;;;;11.08;86.48;97959.09;5080462;27;20050;-71
2022/09/17 04:53:56;;;;;;;7.07;4.30;;;;;;;11.17;86.77;97960.84;5097217;27;20042;-71
2022/09/17 04:56:21;;;;;;;5.40;4.25;;;;;;;11.31;86.48;97966.63;5084505;27;20057;-71
2022/09/17 04:58:45;;;;;;;9.50;4.55;;;;;;;11.43;85.97;97960.03;5102097;27;20060;-71
2022/09/17 05:01:12;;;;;;;6.03;4.47;;;;;;;11.58;85.93;97963.81;5083559;27;20589;-71
2022/09/17 05:03:37;;;;;;;10.35;4.60;;;;;;;11.66;84.66;97961.19;5085598;27;20490;-72
2022/09/17 05:06:01;;;;;;;6.05;4.47;;;;;;;11.78;82.90;97965.31;5069300;27;20405;-71
2022/09/17 05:08:26;;;;;;;7.88;4.35;;;;;;;12.03;82.58;97968.13;5085408;27;20096;-71
2022/09/17 05:10:51;;;;;;;7.22;4.97;;;;;;;12.28;81.15;97962.72;5064949;27;20161;-71
2022/09/17 05:13:16;;;;;;;9.38;4.65;;;;;;;12.41;79.32;97959.59;5098214;27;20421;-73
2022/09/17 05:15:41;;;;;;;5.20;3.70;;;;;;;12.51;78.51;97962.13;5064662;27;20112;-67
2022/09/17 05:18:05;;;;;;;5.93;3.75;;;;;;;12.56;75.25;97955.28;5081141;27;20493;-69
2022/09/17 05:20:30;;;;;;;5.93;4.20;;;;;;;12.72;75.63;97971.38;5079341;27;20427;-69
2022/09/17 05:22:54;;;;;;;6.13;3.35;;;;;;;12.88;74.16;97959.00;5062388;27;20133;-68
2022/09/17 05:25:24;;;;;;;6.95;3.58;;;;;;;13.14;72.52;97970.44;5078157;27;20065;-70
2022/09/17 05:27:50;;;;;;;4.88;3.55;;;;;;;13.38;72.81;97988.34;5081693;27;20039;-67
2022/09/17 05:30:15;;;;;;;4.30;3.45;;;;;;;13.68;72.44;97995.69;5064276;27;20480;-67
2022/09/17 05:32:40;;;;;;;5.22;4.00;;;;;;;14.03;69.18;97977.53;5079888;27;20122;-68
2022/09/17 05:35:05;;;;;;;5.47;4.07;;;;;;;14.33;68.43;97984.84;5097315;27;20053;-69
2022/09/17 05:37:30;;;;;;;4.80;3.97;;;;;;;14.81;66.50;97981.09;5097281;27;20035;-68
2022/09/17 05:39:56;;;;;;;5.35;3.80;;;;;;;15.46;64.97;97985.16;5080103;27;20497;-68
2022/09/17 05:42:20;;;;;;;7.60;4.22;;;;;;;16.30;61.96;97984.84;5096136;27;20043;-67
2022/09/17 05:44:45;;;;;;;4.43;3.53;;;;;;;17.03;57.98;97994.69;5077623;28;20100;-71
2022/09/17 05:47:10;;;;;;;7.78;3.78;;;;;;;17.62;56.13;97990.88;5097475;27;20148;-72
2022/09/17 05:49:34;;;;;;;5.43;4.00;;;;;;;17.78;54.39;97988.78;5078227;28;20134;-71
2022/09/17 05:51:59;;;;;;;5.65;3.83;;;;;;;17.98;53.93;97994.31;5069754;28;20443;-71
2022/09/17 05:54:24;;;;;;;5.45;3.78;;;;;;;17.50;54.73;97998.63;5096584;28;20511;-71
2022/09/17 05:56:52;;;;;;;11.52;3.53;;;;;;;17.35;56.04;98003.28;5078589;28;20125;-70
2022/09/17 05:59:16;;;;;;;9.65;3.50;;;;;;;17.22;55.36;98011.22;5097204;28;20068;-71
2022/09/17 06:01:41;;;;;;;4.95;3.70;;;;;;;17.35;54.83;98005.97;5078085;28;20124;-67
2022/09/17 06:04:06;;;;;;;6.22;3.53;;;;;;;17.69;53.57;98008.81;5079631;27;20039;-67
2022/09/17 06:06:30;;;;;;;7.10;3.80;;;;;;;18.11;52.96;98005.19;5103323;27;20095;-68
2022/09/17 06:08:58;;;;;;;6.70;3.63;;;;;;;18.91;51.96;98011.88;5102870;27;20035;-69
2022/09/17 06:11:23;;;;;;;4.82;3.58;;;;;;;20.02;48.75;98010.38;5085984;27;20043;-68
2022/09/17 06:13:48;;;;;;;6.78;4.28;;;;;;;21.31;45.01;98011.28;5103319;27;20107;-68
2022/09/17 06:16:13;;;;;;;5.43;3.15;;;;;;;21.95;42.25;98007.47;5103599;27;20062;-68
2022/09/17 06:18:38;;;;;;;3.38;2.92;;;;;;;21.55;42.37;98016.97;5086118;27;20066;-68
2022/09/17 06:21:04;;;;;;;6.32;3.55;;;;;;;21.40;42.64;98019.16;5083847;27;20397;-67
2022/09/17 06:23:36;;;;;;;7.53;4.22;;;;;;;21.15;43.35;98006.31;5101445;27;20054;-72
2022/09/17 06:26:01;;;;;;;5.25;3.38;;;;;;;21.06;43.33;98010.34;5102115;27;20679;-68
2022/09/17 06:28:27;;;;;;;5.45;3.30;;;;;;;21.08;43.26;98019.09;5103543;27;20107;-67
2022/09/17 06:30:53;;;;;;;3.88;3.30;;;;;;;20.96;42.61;98009.97;5085559;28;20154;-68
2022/09/17 06:33:18;;;;;;;4.20;2.92;;;;;;;20.65;42.34;98000.69;5087055;28;20047;-67
2022/09/17 06:35:43;;;;;;;5.82;3.63;;;;;;;20.54;43.53;98009.47;5053292;28;20045;-68
2022/09/17 06:38:08;;;;;;;6.47;3.60;;;;;;;20.78;42.45;98005.25;5096376;28;20127;-68
2022/09/17 06:40:33;;;;;;;6.43;3.45;;;;;;;21.16;41.25;98016.13;5089121;28;20070;-68
2022/09/17 06:42:58;;;;;;;7.90;3.55;;;;;;;21.09;40.87;98012.63;5087253;28;20045;-68
2022/09/17 06:45:23;;;;;;;7.03;3.75;;;;;;;20.82;41.70;98005.66;5090223;28;20046;-70
2022/09/17 06:47:47;;;;;;;5.75;3.63;;;;;;;20.44;42.71;98014.50;5091579;28;20071;-71
2022/09/17 06:50:12;;;;;;;5.38;2.90;;;;;;;20.01;43.33;98016.00;5083298;28;20208;-68
2022/09/17 06:52:37;;;;;;;8.18;4.50;;;;;;;19.33;44.19;98018.84;5045351;28;20702;-68
2022/09/17 06:55:02;;;;;;;6.65;3.45;;;;;;;19.20;44.69;98014.22;5089581;28;20044;-68
2022/09/17 06:57:28;;;;;;;4.57;3.22;;;;;;;19.35;44.45;98018.63;5091849;28;20070;-70
2022/09/17 06:59:53;;;;;;;7.18;3.67;;;;;;;19.71;43.75;98016.44;5093691;28;20050;-71
2022/09/17 07:02:17;;;;;;;4.00;2.90;;;;;;;20.41;43.46;98022.25;5076569;28;20530;-68
2022/09/17 07:04:42;;;;;;;5.05;2.90;;;;;;;20.65;41.94;98024.28;5084821;28;20143;-68
2022/09/17 07:07:08;;;;;;;5.25;3.28;;;;;;;20.62;42.55;98013.84;5043708;28;20130;-69
2022/09/17 07:09:33;;;;;;;9.98;4.80;;;;;;;21.11;41.80;98015.94;5068095;28;20067;-67
2022/09/17 07:11:57;;;;;;;4.03;3.33;;;;;;;22.36;38.31;98025.06;5080396;28;20082;-68
2022/09/17 07:14:23;;;;;;;7.68;3.10;;;;;;;23.25;37.15;98020.94;5077994;28;20043;-67
2022/09/17 07:16:48;;;;;;;4.13;3.45;;;;;;;22.85;36.95;98036.91;5058997;28;20073;-69
2022/09/17 07:19:13;;;;;;;5.10;3.30;;;;;;;21.95;37.71;98045.47;5077930;28;20070;-69
2022/09/17 07:21:37;;;;;;;7.53;3.55;;;;;;;20.65;39.22;98043.22;5059792;28;20142;-68
2022/09/17 07:24:02;;;;;;;6.07;2.97;;;;;;;20.18;40.66;98044.31;5077819;28;20040;-69
2022/09/17 07:26:27;;;;;;;7.65;3.50;;;;;;;19.71;41.89;98039.94;5059602;28;20040;-68
2022/09/17 07:28:51;;;;;;;6.68;3.25;;;;;;;19.48;42.24;98051.09;5077592;28;20134;-68
2022/09/17 07:31:16;;;;;;;7.03;3.35;;;;;;;19.39;42.92;98052.34;5041928;28;20049;-68
2022/09/17 07:33:41;;;;;;;7.90;3.33;;;;;;;19.41;43.15;98058.38;5077688;28;20035;-68
2022/09/17 07:36:09;;;;;;;6.07;2.97;;;;;;;19.55;43.29;98060.06;5059575;28;20137;-68
2022/09/17 07:38:34;;;;;;;6.85;3.08;;;;;;;19.65;43.00;98059.66;5059589;28;20043;-67
2022/09/17 07:41:01;;;;;;;8.57;3.83;;;;;;;19.72;42.50;98063.22;5059327;28;20050;-67
2022/09/17 07:43:29;;;;;;;10.25;3.10;;;;;;;19.69;41.53;98053.66;5042514;28;20524;-68
2022/09/17 07:45:56;;;;;;;11.27;4.05;;;;;;;19.55;41.82;98062.78;5077728;28;20054;-68
2022/09/17 07:48:21;;;;;;;10.73;3.88;;;;;;;19.29;42.67;98057.28;5077657;28;20066;-68
2022/09/17 07:50:46;;;;;;;11.80;3.00;;;;;;;19.44;42.65;98060.63;5060748;27;20039;-68
2022/09/17 07:53:11;;;;;;;14.35;3.55;;;;;;;19.13;42.25;98056.63;5062549;27;20059;-68
2022/09/17 07:55:36;;;;;;;8.55;3.63;;;;;;;19.36;42.78;98067.06;5079745;27;20050;-68
2022/09/17 07:58:01;;;;;;;9.10;3.90;;;;;;;19.53;42.67;98059.44;5042833;27;20096;-69
2022/09/17 08:00:26;;;;;;;7.95;3.50;;;;;;;19.56;42.12;98056.34;5060245;27;20084;-67
2022/09/17 08:02:55;;;;;;;14.50;3.97;;;;;;;19.77;42.29;98072.38;5088257;27;20059;-68
2022/09/17 08:05:21;;;;;;;5.53;3.70;;;;;;;19.75;41.48;98069.03;5068817;27;20098;-67
2022/09/17 08:07:50;;;;;;;7.85;3.45;;;;;;;20.05;41.29;98055.13;5040137;28;20455;-67
2022/09/17 08:10:15;;;;;;;5.85;3.67;;;;;;;20.38;39.57;98061.38;5085524;27;20077;-66
2022/09/17 08:12:39;;;;;;;12.68;3.22;;;;;;;20.89;38.33;98056.03;5069235;27;20039;-68
2022/09/17 08:15:04;;;;;;;5.60;3.47;;;;;;;21.42;38.16;98057.72;5086762;27;20470;-68
2022/09/17 08:17:30;;;;;;;7.72;3.40;;;;;;;22.17;37.00;98064.94;5086244;27;20502;-67
2022/09/17 08:19:55;;;;;;;6.28;3.55;;;;;;;23.76;34.47;98119.22;5045651;27;20038;-68
2022/09/17 08:22:20;;;;;;;10.18;3.42;;;;;;;26.19;31.41;98123.06;5086497;27;20032;-69
2022/09/17 08:24:44;;;;;;;9.30;3.53;;;;;;;28.12;28.14;98115.66;5055361;27;20036;-68
2022/09/17 08:27:09;;;;;;;4.65;3.63;;;;;;;29.78;26.23;98048.38;5067487;28;20043;-69
2022/09/17 08:29:34;;;;;;;6.53;3.45;;;;;;;30.96;24.16;98051.66;5097831;27;20131;-69
2022/09/17 08:31:59;;;;;;;4.70;4.00;;;;;;;32.28;22.55;98055.69;5060945;27;20501;-69
2022/09/17 08:34:23;;;;;;;5.95;3.65;;;;;;;33.40;21.58;98052.63;5093079;27;20034;-70
2022/09/17 08:36:48;;;;;;;6.30;3.35;;;;;;;34.37;20.06;98057.56;5112856;27;20038;-70
2022/09/17 08:39:13;;;;;;;8.40;3.50;;;;;;;34.24;20.55;98048.91;5090303;27;20113;-70
2022/09/17 08:41:50;;;;;;;10.68;4.53;;;;;;;35.07;19.12;98051.88;5089942;27;20035;-73
2022/09/17 08:44:26;;;;;;;11.05;4.00;;;;;;;35.20;18.55;98054.66;5087339;27;20050;-69
2022/09/17 08:47:09;;;;;;;8.55;4.28;;;;;;;35.65;20.43;98054.84;5091183;27;21396;-69
2022/09/17 08:49:40;;;;;;;4.95;3.65;;;;;;;35.29;18.80;98049.25;5095117;27;20035;-70
2022/09/17 08:52:17;;;;;;;6.70;3.80;;;;;;;34.58;19.32;98053.31;5090742;27;20449;-69
2022/09/17 08:54:55;;;;;;;10.15;4.25;;;;;;;34.63;21.05;98067.09;5088320;27;20050;-71
2022/09/17 08:58:01;;;;;;;5.20;4.00;;;;;;;33.95;20.55;98053.81;5107361;27;20083;-70
2022/09/17 09:00:32;;;;;;;6.18;3.92;;;;;;;32.34;21.11;98055.34;5033362;28;20044;-67
2022/09/17 09:03:33;;;;;;;7.68;3.85;;;;;;;32.05;22.95;98063.56;5022509;28;20044;-68
2022/09/17 09:06:00;;;;;;;8.95;3.88;;;;;;;31.37;20.51;98048.78;5016046;28;20053;-67
2022/09/17 09:08:34;;;;;;;6.43;3.58;;;;;;;31.30;21.22;98057.34;4991253;28;20067;-67
2022/09/17 09:11:01;;;;;;;5.95;3.30;;;;;;;30.51;21.83;98060.78;5032112;28;20060;-66
2022/09/17 09:13:32;;;;;;;11.27;3.55;;;;;;;30.36;22.44;98065.50;5032095;28;20040;-67
2022/09/17 09:16:02;;;;;;;10.85;3.92;;;;;;;30.42;21.87;98051.44;5032148;28;20032;-68
2022/09/17 09:18:35;;;;;;;8.20;3.63;;;;;;;30.81;21.56;98065.47;5015474;28;20123;-67
2022/09/17 09:21:07;;;;;;;7.20;4.32;;;;;;;30.52;21.83;98045.13;4999124;28;20060;-68
2022/09/17 09:23:43;;;;;;;5.28;3.20;;;;;;;30.44;22.05;98062.19;5030306;28;20198;-69
2022/09/17 09:26:16;;;;;;;6.90;3.38;;;;;;;30.22;21.63;98062.47;5032711;28;20048;-68
2022/09/17 09:28:52;;;;;;;6.50;3.25;;;;;;;29.52;22.38;98111.47;5004107;28;20052;-67
2022/09/17 09:31:22;;;;;;;5.38;3.30;;;;;;;29.04;22.48;98111.75;5010648;28;20048;-67
2022/09/17 09:33:49;;;;;;;4.95;2.80;;;;;;;27.91;23.10;98059.84;4996064;28;20364;-67
2022/09/17 09:36:20;;;;;;;4.57;2.95;;;;;;;27.85;24.17;98057.31;5027325;27;20057;-67
2022/09/17 09:39:00;;;;;;;5.15;3.10;;;;;;;27.91;24.68;98064.50;5067871;27;20024;-68
2022/09/17 09:41:36;;;;;;;3.83;2.72;;;;;;;26.89;23.84;98059.69;5086483;27;20078;-71
2022/09/17 09:44:09;;;;;;;4.03;2.75;;;;;;;26.31;26.12;98059.13;5068701;28;20052;-69
2022/09/17 09:46:57;;;;;;;10.73;3.83;;;;;;;25.86;25.63;98061.03;5078489;28;20050;-75
2022/09/17 09:49:52;;;;;;;8.98;3.00;;;;;;;26.03;25.95;98064.63;5075712;28;20054;-73
2022/09/17 09:52:47;;;;;;;7.85;3.30;;;;;;;26.81;26.28;98069.16;4996072;28;20041;-75
2022/09/17 09:55:33;;;;;;;5.82;2.85;;;;;;;26.96;26.14;98063.94;4993630;28;20041;-71
2022/09/17 09:58:11;;;;;;;6.05;2.80;;;;;;;26.45;23.79;98062.34;5008277;28;20136;-71
2022/09/17 10:00:39;;;;;;;5.18;2.50;;;;;;;26.09;24.53;98071.81;4977360;28;20040;-69
2022/09/17 10:03:13;;;;;;;4.20;2.60;;;;;;;26.57;24.79;98070.44;5012532;28;20052;-70
2022/09/17 10:05:37;;;;;;;;;;;;;;;26.91;25.12;98074.78;4991452;28;20033;-71
2022/09/17 10:08:13;;;;;;;3.38;2.40;;;;;;;25.63;25.65;98067.44;5012145;28;20020;-70
2022/09/17 10:10:55;;;;;;;3.67;2.63;;;;;;;24.85;26.75;98070.69;4990753;28;20122;-69
2022/09/17 10:13:20;;;;;;;3.42;2.42;;;;;;;23.91;26.90;98069.81;4977809;28;20163;-69
2022/09/17 10:15:45;;;;;;;5.07;2.67;;;;;;;23.21;27.77;98077.66;4995607;28;20136;-70
2022/09/17 10:18:12;;;;;;;9.30;2.35;;;;;;;22.17;29.24;98074.97;5012725;28;20128;-71
2022/09/17 10:20:55;;;;;;;6.57;2.60;;;;;;;21.72;30.65;98083.19;5013085;28;20043;-71
2022/09/17 10:23:21;;;;;;;4.47;2.35;;;;;;;21.15;31.15;98076.78;4995195;28;20054;-72
2022/09/17 10:25:47;;;;;;;6.93;2.47;;;;;;;20.77;31.93;98074.00;4993035;28;20129;-73
2022/09/17 10:28:38;;;;;;;8.25;2.63;;;;;;;20.82;32.63;98079.63;5002851;28;20131;-71
2022/09/17 10:31:09;;;;;;;9.13;2.75;;;;;;;20.59;32.04;98071.13;5053195;28;20135;-71
2022/09/17 10:33:35;;;;;;;6.18;2.45;;;;;;;20.53;31.78;98072.00;5036888;28;20044;-73
2022/09/17 10:36:05;;;;;;;6.90;2.72;;;;;;;20.40;32.10;98082.84;5036633;28;20505;-74
2022/09/17 10:38:41;;;;;;;4.43;2.33;;;;;;;20.12;33.16;98085.72;5052728;28;20044;-73
2022/09/17 10:41:12;;;;;;;4.88;2.28;;;;;;;19.84;33.50;98088.63;5035552;28;20079;-73
2022/09/17 10:43:37;;;;;;;5.72;2.38;;;;;;;19.30;33.87;98092.19;5053746;28;20044;-70
2022/09/17 10:46:02;;;;;;;7.78;3.03;;;;;;;19.08;35.19;98109.56;5052850;28;20093;-73
2022/09/17 10:48:31;;;;;;;5.40;2.70;;;;;;;18.66;36.65;98105.19;5035272;28;20442;-71
2022/09/17 10:50:56;;;;;;;4.00;2.40;;;;;;;18.45;36.82;98116.84;5035848;28;20052;-72
2022/09/17 10:53:23;;;;;;;3.85;2.25;;;;;;;18.22;38.65;98114.41;5045666;28;20048;-71
2022/09/17 10:56:16;;;;;;;6.55;2.67;;;;;;;18.04;38.97;98100.56;5024676;28;20043;-72
2022/09/17 10:59:04;;;;;;;9.68;2.25;;;;;;;17.86;39.80;98114.50;5060956;28;20121;-71
2022/09/17 11:01:49;;;;;;;5.18;2.72;;;;;;;17.71;40.33;98101.09;5061333;28;20051;-71
2022/09/17 11:05:07;;;;;;;4.38;1.90;;;;;;;17.68;40.50;98111.41;5061595;28;20039;-71
2022/09/17 11:07:43;;;;;;;3.25;2.30;;;;;;;17.49;41.41;98110.16;4959988;28;20152;-71
2022/09/17 11:10:11;;;;;;;4.75;2.33;;;;;;;17.35;42.44;98105.66;4960033;28;20132;-71
2022/09/17 11:12:41;;;;;;;6.10;3.08;;;;;;;17.25;42.97;98118.59;4959771;28;20053;-66
2022/09/17 11:15:31;;;;;;;4.05;2.38;;;;;;;17.00;42.91;98100.03;4975577;28;20060;-66
2022/09/17 11:18:30;;;;;;;6.72;2.65;;;;;;;16.89;43.40;98100.53;4956181;28;20045;-68
2022/09/17 11:21:08;;;;;;;5.03;2.55;;;;;;;16.73;45.08;98095.31;4957584;28;20049;-69
2022/09/17 11:23:47;;;;;;;3.70;2.22;;;;;;;16.69;44.03;98104.81;4957098;28;20186;-68
2022/09/17 11:26:52;;;;;;;3.50;2.47;;;;;;;16.60;44.92;98095.94;4955787;28;20058;-70
2022/09/17 11:29:42;;;;;;;5.35;2.80;;;;;;;16.54;45.60;98095.84;4927407;28;20050;-69
2022/09/17 11:32:51;;;;;;;4.30;2.45;;;;;;;16.49;45.08;98100.94;4954200;28;20054;-67
2022/09/17 11:35:29;;;;;;;12.10;3.15;;;;;;;16.56;44.33;98104.59;4956070;28;20050;-66
2022/09/17 11:38:16;;;;;;;4.43;2.25;;;;;;;16.55;44.34;98109.13;4936788;28;20062;-66
2022/09/17 11:40:47;;;;;;;5.82;2.97;;;;;;;16.62;43.67;98112.75;4960241;28;20893;-66
2022/09/17 11:43:30;;;;;;;6.38;3.30;;;;;;;16.77;42.86;98115.47;5014424;28;20081;-67
2022/09/17 11:46:13;;;;;;;4.55;2.40;;;;;;;17.03;43.30;98117.69;4981559;28;20048;-72
2022/09/17 11:48:46;;;;;;;11.43;2.20;;;;;;;17.15;41.49;98094.66;5014524;28;20103;-74
2022/09/17 11:51:47;;;;;;;5.70;2.20;;;;;;;17.44;41.98;98112.56;4981714;28;20049;-71
2022/09/17 11:54:17;;;;;;;5.03;2.70;;;;;;;17.54;41.60;98112.25;4970803;28;20046;-71